sensor_id;sensor_type;location;lat;lon;timestamp;P1;durP1;ratioP1;P2;durP2;ratioP2
35290;SDS011;21411;50.024;19.220;2023-07-09T00:02:01;30.00;;;25.00;;
35290;SDS011;21411;50.024;19.220;2023-07-09T00:04:27;29.90;;;25.40;;
35290;SDS011;21411;50.024;19.220;2023-07-09T00:06:54;34.30;;;26.20;;
35290;SDS011;21411;50.024;19.220;2023-07-09T00:09:21;31.20;;;25.60;;
35290;SDS011;21411;50.024;19.220;2023-07-09T00:11:47;31.90;;;25.90;;
35290;SDS011;21411;50.024;19.220;2023-07-09T00:14:14;31.70;;;25.30;;
35290;SDS011;21411;50.024;19.220;2023-07-09T00:16:40;32.40;;;26.90;;
35290;SDS011;21411;50.024;19.220;2023-07-09T00:19:14;34.80;;;28.10;;
35290;SDS011;21411;50.024;19.220;2023-07-09T00:21:42;29.90;;;25.90;;
35290;SDS011;21411;50.024;19.220;2023-07-09T00:24:13;29.80;;;26.50;;
35290;SDS011;21411;50.024;19.220;2023-07-09T00:26:39;29.50;;;25.30;;
35290;SDS011;21411;50.024;19.220;2023-07-09T00:29:09;33.70;;;25.90;;
35290;SDS011;21411;50.024;19.220;2023-07-09T00:34:04;29.00;;;23.30;;
35290;SDS011;21411;50.024;19.220;2023-07-09T00:36:30;27.50;;;23.90;;
35290;SDS011;21411;50.024;19.220;2023-07-09T00:38:59;31.50;;;25.10;;
35290;SDS011;21411;50.024;19.220;2023-07-09T00:41:33;29.20;;;24.70;;
35290;SDS011;21411;50.024;19.220;2023-07-09T00:44:13;32.60;;;25.70;;
35290;SDS011;21411;50.024;19.220;2023-07-09T00:49:14;29.70;;;23.80;;
35290;SDS011;21411;50.024;19.220;2023-07-09T00:51:44;25.70;;;22.60;;
35290;SDS011;21411;50.024;19.220;2023-07-09T00:54:12;25.10;;;22.40;;
35290;SDS011;21411;50.024;19.220;2023-07-09T00:56:40;29.50;;;25.00;;
35290;SDS011;21411;50.024;19.220;2023-07-09T00:59:15;30.70;;;26.10;;
35290;SDS011;21411;50.024;19.220;2023-07-09T01:01:42;30.80;;;25.40;;
35290;SDS011;21411;50.024;19.220;2023-07-09T01:04:08;29.40;;;24.50;;
35290;SDS011;21411;50.024;19.220;2023-07-09T01:06:44;29.30;;;25.30;;
35290;SDS011;21411;50.024;19.220;2023-07-09T01:09:10;27.90;;;23.40;;
35290;SDS011;21411;50.024;19.220;2023-07-09T01:11:36;26.70;;;22.80;;
35290;SDS011;21411;50.024;19.220;2023-07-09T01:14:04;27.10;;;22.20;;
35290;SDS011;21411;50.024;19.220;2023-07-09T01:16:32;26.40;;;23.00;;
35290;SDS011;21411;50.024;19.220;2023-07-09T01:18:59;29.50;;;23.70;;
35290;SDS011;21411;50.024;19.220;2023-07-09T01:21:26;26.90;;;21.80;;
35290;SDS011;21411;50.024;19.220;2023-07-09T01:23:52;26.70;;;23.10;;
35290;SDS011;21411;50.024;19.220;2023-07-09T01:26:19;26.20;;;23.40;;
35290;SDS011;21411;50.024;19.220;2023-07-09T01:28:45;26.00;;;22.10;;
35290;SDS011;21411;50.024;19.220;2023-07-09T01:31:12;25.60;;;20.90;;
35290;SDS011;21411;50.024;19.220;2023-07-09T01:33:39;25.10;;;22.20;;
35290;SDS011;21411;50.024;19.220;2023-07-09T01:36:05;25.80;;;22.70;;
35290;SDS011;21411;50.024;19.220;2023-07-09T01:38:32;26.30;;;23.40;;
35290;SDS011;21411;50.024;19.220;2023-07-09T01:40:59;28.40;;;23.60;;
35290;SDS011;21411;50.024;19.220;2023-07-09T01:43:25;27.70;;;23.70;;
35290;SDS011;21411;50.024;19.220;2023-07-09T01:45:51;29.50;;;25.00;;
35290;SDS011;21411;50.024;19.220;2023-07-09T01:48:17;30.90;;;27.50;;
35290;SDS011;21411;50.024;19.220;2023-07-09T01:50:46;31.40;;;28.20;;
35290;SDS011;21411;50.024;19.220;2023-07-09T01:53:12;28.30;;;24.90;;
35290;SDS011;21411;50.024;19.220;2023-07-09T01:55:38;30.80;;;26.50;;
35290;SDS011;21411;50.024;19.220;2023-07-09T01:58:04;31.30;;;25.40;;
35290;SDS011;21411;50.024;19.220;2023-07-09T02:00:32;29.20;;;24.80;;
35290;SDS011;21411;50.024;19.220;2023-07-09T02:03:00;26.60;;;23.60;;
35290;SDS011;21411;50.024;19.220;2023-07-09T02:05:30;25.30;;;22.70;;
35290;SDS011;21411;50.024;19.220;2023-07-09T02:07:56;24.90;;;22.30;;
35290;SDS011;21411;50.024;19.220;2023-07-09T02:10:21;24.00;;;21.60;;
35290;SDS011;21411;50.024;19.220;2023-07-09T02:12:47;24.70;;;22.20;;
35290;SDS011;21411;50.024;19.220;2023-07-09T02:15:13;25.30;;;22.60;;
35290;SDS011;21411;50.024;19.220;2023-07-09T02:17:39;22.90;;;20.40;;
35290;SDS011;21411;50.024;19.220;2023-07-09T02:20:06;23.30;;;20.80;;
35290;SDS011;21411;50.024;19.220;2023-07-09T02:22:33;23.00;;;20.40;;
35290;SDS011;21411;50.024;19.220;2023-07-09T02:24:58;22.00;;;19.70;;
35290;SDS011;21411;50.024;19.220;2023-07-09T02:27:24;23.90;;;20.10;;
35290;SDS011;21411;50.024;19.220;2023-07-09T02:29:50;21.00;;;18.90;;
35290;SDS011;21411;50.024;19.220;2023-07-09T02:32:19;22.10;;;19.10;;
35290;SDS011;21411;50.024;19.220;2023-07-09T02:34:46;20.30;;;18.30;;
35290;SDS011;21411;50.024;19.220;2023-07-09T02:37:15;22.50;;;19.90;;
35290;SDS011;21411;50.024;19.220;2023-07-09T02:39:42;21.60;;;19.30;;
35290;SDS011;21411;50.024;19.220;2023-07-09T02:42:09;25.30;;;22.60;;
35290;SDS011;21411;50.024;19.220;2023-07-09T02:44:35;23.00;;;20.40;;
35290;SDS011;21411;50.024;19.220;2023-07-09T02:47:01;21.90;;;19.60;;
35290;SDS011;21411;50.024;19.220;2023-07-09T02:49:27;24.00;;;20.60;;
35290;SDS011;21411;50.024;19.220;2023-07-09T02:51:52;23.20;;;20.00;;
35290;SDS011;21411;50.024;19.220;2023-07-09T02:54:18;23.60;;;20.80;;
35290;SDS011;21411;50.024;19.220;2023-07-09T02:56:44;23.60;;;21.20;;
35290;SDS011;21411;50.024;19.220;2023-07-09T02:59:10;23.20;;;20.90;;
35290;SDS011;21411;50.024;19.220;2023-07-09T03:01:36;24.80;;;22.30;;
35290;SDS011;21411;50.024;19.220;2023-07-09T03:04:02;25.10;;;22.40;;
35290;SDS011;21411;50.024;19.220;2023-07-09T03:06:29;23.00;;;20.60;;
35290;SDS011;21411;50.024;19.220;2023-07-09T03:08:55;21.40;;;19.10;;
35290;SDS011;21411;50.024;19.220;2023-07-09T03:11:21;19.90;;;17.90;;
35290;SDS011;21411;50.024;19.220;2023-07-09T03:13:47;21.60;;;19.30;;
35290;SDS011;21411;50.024;19.220;2023-07-09T03:16:13;22.30;;;19.30;;
35290;SDS011;21411;50.024;19.220;2023-07-09T03:18:39;21.90;;;19.60;;
35290;SDS011;21411;50.024;19.220;2023-07-09T03:21:05;22.20;;;19.90;;
35290;SDS011;21411;50.024;19.220;2023-07-09T03:23:31;21.40;;;19.30;;
35290;SDS011;21411;50.024;19.220;2023-07-09T03:25:57;24.10;;;21.50;;
35290;SDS011;21411;50.024;19.220;2023-07-09T03:28:22;23.80;;;20.80;;
35290;SDS011;21411;50.024;19.220;2023-07-09T03:30:49;22.80;;;20.50;;
35290;SDS011;21411;50.024;19.220;2023-07-09T03:33:15;21.60;;;19.40;;
35290;SDS011;21411;50.024;19.220;2023-07-09T03:35:41;20.70;;;18.70;;
35290;SDS011;21411;50.024;19.220;2023-07-09T03:38:08;21.90;;;19.60;;
35290;SDS011;21411;50.024;19.220;2023-07-09T03:40:34;19.90;;;17.90;;
35290;SDS011;21411;50.024;19.220;2023-07-09T03:43:00;20.80;;;18.70;;
35290;SDS011;21411;50.024;19.220;2023-07-09T03:45:26;18.60;;;16.80;;
35290;SDS011;21411;50.024;19.220;2023-07-09T03:47:51;18.60;;;16.90;;
35290;SDS011;21411;50.024;19.220;2023-07-09T03:50:17;18.30;;;16.50;;
35290;SDS011;21411;50.024;19.220;2023-07-09T03:52:43;17.50;;;15.80;;
35290;SDS011;21411;50.024;19.220;2023-07-09T03:55:09;16.80;;;15.40;;
35290;SDS011;21411;50.024;19.220;2023-07-09T03:57:35;18.50;;;16.80;;
35290;SDS011;21411;50.024;19.220;2023-07-09T04:00:01;17.50;;;15.70;;
35290;SDS011;21411;50.024;19.220;2023-07-09T04:02:27;17.00;;;15.40;;
35290;SDS011;21411;50.024;19.220;2023-07-09T04:04:52;17.10;;;15.40;;
35290;SDS011;21411;50.024;19.220;2023-07-09T04:07:18;14.60;;;13.10;;
35290;SDS011;21411;50.024;19.220;2023-07-09T04:09:44;15.00;;;13.40;;
35290;SDS011;21411;50.024;19.220;2023-07-09T04:12:09;12.90;;;11.70;;
35290;SDS011;21411;50.024;19.220;2023-07-09T04:14:35;12.60;;;11.50;;
35290;SDS011;21411;50.024;19.220;2023-07-09T04:17:01;11.80;;;10.80;;
35290;SDS011;21411;50.024;19.220;2023-07-09T04:19:27;11.20;;;10.20;;
35290;SDS011;21411;50.024;19.220;2023-07-09T04:21:53;11.20;;;10.00;;
35290;SDS011;21411;50.024;19.220;2023-07-09T04:24:19;11.10;;;10.10;;
35290;SDS011;21411;50.024;19.220;2023-07-09T04:26:45;11.50;;;10.30;;
35290;SDS011;21411;50.024;19.220;2023-07-09T04:29:11;10.30;;;9.30;;
35290;SDS011;21411;50.024;19.220;2023-07-09T04:31:37;9.90;;;8.90;;
35290;SDS011;21411;50.024;19.220;2023-07-09T04:34:03;9.10;;;8.20;;
35290;SDS011;21411;50.024;19.220;2023-07-09T04:36:29;9.00;;;8.30;;
35290;SDS011;21411;50.024;19.220;2023-07-09T04:38:54;8.70;;;7.90;;
35290;SDS011;21411;50.024;19.220;2023-07-09T04:41:20;9.30;;;7.50;;
35290;SDS011;21411;50.024;19.220;2023-07-09T04:43:46;8.80;;;7.70;;
35290;SDS011;21411;50.024;19.220;2023-07-09T04:46:11;9.30;;;8.40;;
35290;SDS011;21411;50.024;19.220;2023-07-09T04:48:37;9.70;;;8.20;;
35290;SDS011;21411;50.024;19.220;2023-07-09T04:51:04;7.90;;;7.30;;
35290;SDS011;21411;50.024;19.220;2023-07-09T04:53:30;9.10;;;8.20;;
35290;SDS011;21411;50.024;19.220;2023-07-09T04:55:56;8.80;;;8.00;;
35290;SDS011;21411;50.024;19.220;2023-07-09T04:58:21;8.80;;;8.10;;
35290;SDS011;21411;50.024;19.220;2023-07-09T05:00:47;8.50;;;7.80;;
35290;SDS011;21411;50.024;19.220;2023-07-09T05:03:13;7.70;;;6.90;;
35290;SDS011;21411;50.024;19.220;2023-07-09T05:05:45;8.50;;;7.80;;
35290;SDS011;21411;50.024;19.220;2023-07-09T05:08:11;8.10;;;7.50;;
35290;SDS011;21411;50.024;19.220;2023-07-09T05:10:48;8.60;;;7.40;;
35290;SDS011;21411;50.024;19.220;2023-07-09T05:13:15;7.90;;;7.30;;
35290;SDS011;21411;50.024;19.220;2023-07-09T05:15:42;7.50;;;6.70;;
35290;SDS011;21411;50.024;19.220;2023-07-09T05:18:08;7.70;;;7.00;;
35290;SDS011;21411;50.024;19.220;2023-07-09T05:20:34;8.90;;;6.90;;
35290;SDS011;21411;50.024;19.220;2023-07-09T05:23:00;7.50;;;6.40;;
35290;SDS011;21411;50.024;19.220;2023-07-09T05:25:26;8.00;;;7.30;;
35290;SDS011;21411;50.024;19.220;2023-07-09T05:27:51;7.60;;;7.00;;
35290;SDS011;21411;50.024;19.220;2023-07-09T05:30:18;10.10;;;7.00;;
35290;SDS011;21411;50.024;19.220;2023-07-09T05:32:43;6.80;;;6.10;;
35290;SDS011;21411;50.024;19.220;2023-07-09T05:35:09;7.80;;;7.00;;
35290;SDS011;21411;50.024;19.220;2023-07-09T05:37:35;7.40;;;6.60;;
35290;SDS011;21411;50.024;19.220;2023-07-09T05:40:01;7.10;;;6.40;;
35290;SDS011;21411;50.024;19.220;2023-07-09T05:42:28;7.40;;;6.50;;
35290;SDS011;21411;50.024;19.220;2023-07-09T05:44:53;7.50;;;6.80;;
35290;SDS011;21411;50.024;19.220;2023-07-09T05:47:19;6.60;;;6.10;;
35290;SDS011;21411;50.024;19.220;2023-07-09T05:49:45;7.50;;;6.50;;
35290;SDS011;21411;50.024;19.220;2023-07-09T05:52:15;6.70;;;6.10;;
35290;SDS011;21411;50.024;19.220;2023-07-09T05:54:41;6.10;;;5.60;;
35290;SDS011;21411;50.024;19.220;2023-07-09T05:57:07;6.20;;;5.70;;
35290;SDS011;21411;50.024;19.220;2023-07-09T05:59:32;6.30;;;5.50;;
35290;SDS011;21411;50.024;19.220;2023-07-09T06:01:58;6.40;;;5.80;;
35290;SDS011;21411;50.024;19.220;2023-07-09T06:04:26;5.70;;;5.20;;
35290;SDS011;21411;50.024;19.220;2023-07-09T06:06:52;5.80;;;5.30;;
35290;SDS011;21411;50.024;19.220;2023-07-09T06:09:17;6.70;;;6.10;;
35290;SDS011;21411;50.024;19.220;2023-07-09T06:11:43;6.10;;;5.60;;
35290;SDS011;21411;50.024;19.220;2023-07-09T06:14:09;6.20;;;5.30;;
35290;SDS011;21411;50.024;19.220;2023-07-09T06:16:35;6.70;;;6.10;;
35290;SDS011;21411;50.024;19.220;2023-07-09T06:19:02;6.30;;;5.70;;
35290;SDS011;21411;50.024;19.220;2023-07-09T06:21:29;6.30;;;5.70;;
35290;SDS011;21411;50.024;19.220;2023-07-09T06:23:54;6.60;;;6.00;;
35290;SDS011;21411;50.024;19.220;2023-07-09T06:26:20;6.40;;;4.90;;
35290;SDS011;21411;50.024;19.220;2023-07-09T06:28:46;5.70;;;5.20;;
35290;SDS011;21411;50.024;19.220;2023-07-09T06:31:12;6.00;;;5.00;;
35290;SDS011;21411;50.024;19.220;2023-07-09T06:33:38;6.20;;;5.60;;
35290;SDS011;21411;50.024;19.220;2023-07-09T06:36:03;5.50;;;4.90;;
35290;SDS011;21411;50.024;19.220;2023-07-09T06:38:30;5.70;;;5.20;;
35290;SDS011;21411;50.024;19.220;2023-07-09T06:40:56;7.10;;;5.30;;
35290;SDS011;21411;50.024;19.220;2023-07-09T06:43:22;5.80;;;5.20;;
35290;SDS011;21411;50.024;19.220;2023-07-09T06:45:52;6.50;;;5.60;;
35290;SDS011;21411;50.024;19.220;2023-07-09T06:48:18;5.50;;;4.60;;
35290;SDS011;21411;50.024;19.220;2023-07-09T06:50:44;6.10;;;5.50;;
35290;SDS011;21411;50.024;19.220;2023-07-09T06:53:10;5.90;;;5.40;;
35290;SDS011;21411;50.024;19.220;2023-07-09T06:55:36;5.70;;;5.10;;
35290;SDS011;21411;50.024;19.220;2023-07-09T06:58:01;8.20;;;4.60;;
35290;SDS011;21411;50.024;19.220;2023-07-09T07:00:27;6.10;;;5.10;;
35290;SDS011;21411;50.024;19.220;2023-07-09T07:02:53;5.60;;;5.10;;
35290;SDS011;21411;50.024;19.220;2023-07-09T07:05:19;6.00;;;5.00;;
35290;SDS011;21411;50.024;19.220;2023-07-09T07:07:44;5.20;;;4.80;;
35290;SDS011;21411;50.024;19.220;2023-07-09T07:10:10;5.20;;;4.60;;
35290;SDS011;21411;50.024;19.220;2023-07-09T07:12:44;5.40;;;4.90;;
35290;SDS011;21411;50.024;19.220;2023-07-09T07:15:10;6.40;;;4.80;;
35290;SDS011;21411;50.024;19.220;2023-07-09T07:17:36;5.20;;;4.60;;
35290;SDS011;21411;50.024;19.220;2023-07-09T07:20:02;6.20;;;4.60;;
35290;SDS011;21411;50.024;19.220;2023-07-09T07:22:28;5.20;;;4.80;;
35290;SDS011;21411;50.024;19.220;2023-07-09T07:24:53;6.00;;;5.00;;
35290;SDS011;21411;50.024;19.220;2023-07-09T07:27:19;5.70;;;5.20;;
35290;SDS011;21411;50.024;19.220;2023-07-09T07:29:45;5.50;;;5.00;;
35290;SDS011;21411;50.024;19.220;2023-07-09T07:32:11;5.10;;;4.70;;
35290;SDS011;21411;50.024;19.220;2023-07-09T07:34:36;6.00;;;5.30;;
35290;SDS011;21411;50.024;19.220;2023-07-09T07:37:03;5.30;;;4.80;;
35290;SDS011;21411;50.024;19.220;2023-07-09T07:39:29;6.10;;;5.30;;
35290;SDS011;21411;50.024;19.220;2023-07-09T07:41:55;5.20;;;4.70;;
35290;SDS011;21411;50.024;19.220;2023-07-09T07:44:21;7.10;;;5.90;;
35290;SDS011;21411;50.024;19.220;2023-07-09T07:46:47;5.90;;;4.80;;
35290;SDS011;21411;50.024;19.220;2023-07-09T07:49:13;5.40;;;4.90;;
35290;SDS011;21411;50.024;19.220;2023-07-09T07:51:39;6.60;;;5.80;;
35290;SDS011;21411;50.024;19.220;2023-07-09T07:54:05;8.40;;;6.10;;
35290;SDS011;21411;50.024;19.220;2023-07-09T07:56:31;6.70;;;5.90;;
35290;SDS011;21411;50.024;19.220;2023-07-09T07:58:57;5.30;;;4.70;;
35290;SDS011;21411;50.024;19.220;2023-07-09T08:01:23;6.90;;;4.50;;
35290;SDS011;21411;50.024;19.220;2023-07-09T08:03:49;5.20;;;4.70;;
35290;SDS011;21411;50.024;19.220;2023-07-09T08:06:15;6.10;;;4.60;;
35290;SDS011;21411;50.024;19.220;2023-07-09T08:08:40;4.40;;;4.10;;
35290;SDS011;21411;50.024;19.220;2023-07-09T08:11:06;5.60;;;4.20;;
35290;SDS011;21411;50.024;19.220;2023-07-09T08:13:33;5.90;;;4.20;;
35290;SDS011;21411;50.024;19.220;2023-07-09T08:16:00;6.00;;;4.40;;
35290;SDS011;21411;50.024;19.220;2023-07-09T08:18:26;4.50;;;4.10;;
35290;SDS011;21411;50.024;19.220;2023-07-09T08:20:51;4.00;;;3.70;;
35290;SDS011;21411;50.024;19.220;2023-07-09T08:23:17;4.90;;;3.80;;
35290;SDS011;21411;50.024;19.220;2023-07-09T08:25:43;6.70;;;4.10;;
35290;SDS011;21411;50.024;19.220;2023-07-09T08:28:08;4.60;;;3.50;;
35290;SDS011;21411;50.024;19.220;2023-07-09T08:30:34;4.10;;;3.60;;
35290;SDS011;21411;50.024;19.220;2023-07-09T08:33:01;5.20;;;3.70;;
35290;SDS011;21411;50.024;19.220;2023-07-09T08:35:27;5.40;;;4.20;;
35290;SDS011;21411;50.024;19.220;2023-07-09T08:37:52;4.60;;;3.90;;
35290;SDS011;21411;50.024;19.220;2023-07-09T08:40:18;4.20;;;3.60;;
35290;SDS011;21411;50.024;19.220;2023-07-09T08:42:46;3.90;;;3.50;;
35290;SDS011;21411;50.024;19.220;2023-07-09T08:50:22;4.30;;;3.90;;
35290;SDS011;21411;50.024;19.220;2023-07-09T08:52:49;3.70;;;3.50;;
35290;SDS011;21411;50.024;19.220;2023-07-09T08:55:17;3.60;;;3.20;;
35290;SDS011;21411;50.024;19.220;2023-07-09T08:57:44;3.30;;;3.00;;
35290;SDS011;21411;50.024;19.220;2023-07-09T09:05:36;4.20;;;3.40;;
35290;SDS011;21411;50.024;19.220;2023-07-09T09:08:05;3.60;;;3.30;;
35290;SDS011;21411;50.024;19.220;2023-07-09T09:11:00;3.80;;;3.50;;
35290;SDS011;21411;50.024;19.220;2023-07-09T09:13:23;4.20;;;3.40;;
35290;SDS011;21411;50.024;19.220;2023-07-09T09:15:50;4.40;;;4.00;;
35290;SDS011;21411;50.024;19.220;2023-07-09T09:18:21;4.30;;;3.70;;
35290;SDS011;21411;50.024;19.220;2023-07-09T09:20:59;3.90;;;3.60;;
35290;SDS011;21411;50.024;19.220;2023-07-09T09:23:30;3.70;;;3.40;;
35290;SDS011;21411;50.024;19.220;2023-07-09T09:25:57;3.50;;;3.20;;
35290;SDS011;21411;50.024;19.220;2023-07-09T09:28:26;4.20;;;3.40;;
35290;SDS011;21411;50.024;19.220;2023-07-09T09:30:52;3.90;;;3.60;;
35290;SDS011;21411;50.024;19.220;2023-07-09T09:33:18;3.50;;;3.20;;
35290;SDS011;21411;50.024;19.220;2023-07-09T09:35:44;4.00;;;3.70;;
35290;SDS011;21411;50.024;19.220;2023-07-09T09:38:11;3.80;;;3.50;;
35290;SDS011;21411;50.024;19.220;2023-07-09T09:40:37;4.50;;;4.00;;
35290;SDS011;21411;50.024;19.220;2023-07-09T09:43:09;4.20;;;3.80;;
35290;SDS011;21411;50.024;19.220;2023-07-09T09:45:37;3.50;;;3.20;;
35290;SDS011;21411;50.024;19.220;2023-07-09T09:48:19;3.60;;;3.30;;
35290;SDS011;21411;50.024;19.220;2023-07-09T09:50:46;3.70;;;3.40;;
35290;SDS011;21411;50.024;19.220;2023-07-09T09:53:22;4.30;;;3.60;;
35290;SDS011;21411;50.024;19.220;2023-07-09T09:55:48;4.00;;;3.40;;
35290;SDS011;21411;50.024;19.220;2023-07-09T09:58:15;4.30;;;3.20;;
35290;SDS011;21411;50.024;19.220;2023-07-09T10:00:46;4.10;;;3.30;;
35290;SDS011;21411;50.024;19.220;2023-07-09T10:03:13;3.80;;;3.50;;
35290;SDS011;21411;50.024;19.220;2023-07-09T10:05:44;3.70;;;3.40;;
35290;SDS011;21411;50.024;19.220;2023-07-09T10:08:29;4.60;;;3.70;;
35290;SDS011;21411;50.024;19.220;2023-07-09T10:11:12;4.00;;;3.60;;
35290;SDS011;21411;50.024;19.220;2023-07-09T10:13:41;4.90;;;3.50;;
35290;SDS011;21411;50.024;19.220;2023-07-09T10:16:28;4.40;;;4.00;;
35290;SDS011;21411;50.024;19.220;2023-07-09T10:19:04;3.80;;;3.50;;
35290;SDS011;21411;50.024;19.220;2023-07-09T10:21:38;5.10;;;3.50;;
35290;SDS011;21411;50.024;19.220;2023-07-09T10:24:12;3.70;;;3.40;;
35290;SDS011;21411;50.024;19.220;2023-07-09T10:26:47;4.00;;;3.50;;
35290;SDS011;21411;50.024;19.220;2023-07-09T10:29:31;4.60;;;4.20;;
35290;SDS011;21411;50.024;19.220;2023-07-09T10:39:50;3.80;;;3.40;;
35290;SDS011;21411;50.024;19.220;2023-07-09T10:42:24;3.80;;;3.30;;
35290;SDS011;21411;50.024;19.220;2023-07-09T10:44:54;3.70;;;3.40;;
35290;SDS011;21411;50.024;19.220;2023-07-09T10:47:27;3.20;;;3.00;;
35290;SDS011;21411;50.024;19.220;2023-07-09T10:49:54;3.80;;;3.40;;
35290;SDS011;21411;50.024;19.220;2023-07-09T10:54:57;5.80;;;3.50;;
35290;SDS011;21411;50.024;19.220;2023-07-09T10:57:29;4.80;;;3.50;;
35290;SDS011;21411;50.024;19.220;2023-07-09T10:59:55;3.80;;;3.50;;
35290;SDS011;21411;50.024;19.220;2023-07-09T11:02:32;3.90;;;3.60;;
35290;SDS011;21411;50.024;19.220;2023-07-09T11:05:02;4.00;;;3.70;;
35290;SDS011;21411;50.024;19.220;2023-07-09T11:07:39;4.90;;;3.60;;
35290;SDS011;21411;50.024;19.220;2023-07-09T11:10:10;4.00;;;3.30;;
35290;SDS011;21411;50.024;19.220;2023-07-09T11:12:38;4.00;;;3.70;;
35290;SDS011;21411;50.024;19.220;2023-07-09T11:15:25;4.40;;;3.40;;
35290;SDS011;21411;50.024;19.220;2023-07-09T11:17:52;4.50;;;3.80;;
35290;SDS011;21411;50.024;19.220;2023-07-09T11:22:50;3.40;;;3.10;;
35290;SDS011;21411;50.024;19.220;2023-07-09T11:25:16;3.80;;;3.50;;
35290;SDS011;21411;50.024;19.220;2023-07-09T11:27:52;3.90;;;3.40;;
35290;SDS011;21411;50.024;19.220;2023-07-09T11:30:22;4.40;;;3.60;;
35290;SDS011;21411;50.024;19.220;2023-07-09T11:32:52;4.50;;;3.40;;
35290;SDS011;21411;50.024;19.220;2023-07-09T11:35:25;4.40;;;3.60;;
35290;SDS011;21411;50.024;19.220;2023-07-09T11:37:51;3.90;;;3.60;;
35290;SDS011;21411;50.024;19.220;2023-07-09T11:40:19;4.40;;;4.10;;
35290;SDS011;21411;50.024;19.220;2023-07-09T11:45:21;4.60;;;3.60;;
35290;SDS011;21411;50.024;19.220;2023-07-09T11:50:29;4.20;;;3.80;;
35290;SDS011;21411;50.024;19.220;2023-07-09T11:53:03;6.20;;;4.00;;
35290;SDS011;21411;50.024;19.220;2023-07-09T11:55:39;4.10;;;3.80;;
35290;SDS011;21411;50.024;19.220;2023-07-09T11:58:09;4.90;;;3.60;;
35290;SDS011;21411;50.024;19.220;2023-07-09T12:00:40;5.00;;;3.90;;
35290;SDS011;21411;50.024;19.220;2023-07-09T12:03:09;5.00;;;3.60;;
35290;SDS011;21411;50.024;19.220;2023-07-09T12:05:35;4.40;;;4.00;;
35290;SDS011;21411;50.024;19.220;2023-07-09T12:08:02;4.70;;;4.20;;
35290;SDS011;21411;50.024;19.220;2023-07-09T12:10:32;6.10;;;3.80;;
35290;SDS011;21411;50.024;19.220;2023-07-09T12:12:58;3.60;;;3.30;;
35290;SDS011;21411;50.024;19.220;2023-07-09T12:15:26;4.80;;;3.30;;
35290;SDS011;21411;50.024;19.220;2023-07-09T12:18:01;5.90;;;3.60;;
35290;SDS011;21411;50.024;19.220;2023-07-09T12:20:32;3.80;;;3.50;;
35290;SDS011;21411;50.024;19.220;2023-07-09T12:22:59;4.30;;;3.60;;
35290;SDS011;21411;50.024;19.220;2023-07-09T12:25:26;3.80;;;3.50;;
35290;SDS011;21411;50.024;19.220;2023-07-09T12:27:52;4.30;;;3.70;;
35290;SDS011;21411;50.024;19.220;2023-07-09T12:30:19;4.00;;;3.70;;
35290;SDS011;21411;50.024;19.220;2023-07-09T12:32:45;4.00;;;3.60;;
35290;SDS011;21411;50.024;19.220;2023-07-09T12:35:12;3.70;;;3.40;;
35290;SDS011;21411;50.024;19.220;2023-07-09T12:37:39;3.60;;;3.30;;
35290;SDS011;21411;50.024;19.220;2023-07-09T12:40:11;3.80;;;3.50;;
35290;SDS011;21411;50.024;19.220;2023-07-09T12:42:38;3.30;;;3.10;;
35290;SDS011;21411;50.024;19.220;2023-07-09T12:45:04;5.50;;;3.40;;
35290;SDS011;21411;50.024;19.220;2023-07-09T12:47:30;4.20;;;3.80;;
35290;SDS011;21411;50.024;19.220;2023-07-09T12:50:00;4.30;;;3.90;;
35290;SDS011;21411;50.024;19.220;2023-07-09T12:52:26;4.40;;;3.30;;
35290;SDS011;21411;50.024;19.220;2023-07-09T12:54:56;4.40;;;3.50;;
35290;SDS011;21411;50.024;19.220;2023-07-09T12:57:22;3.60;;;3.30;;
35290;SDS011;21411;50.024;19.220;2023-07-09T12:59:48;4.10;;;3.80;;
35290;SDS011;21411;50.024;19.220;2023-07-09T13:02:18;4.10;;;3.80;;
35290;SDS011;21411;50.024;19.220;2023-07-09T13:04:44;4.40;;;3.60;;
35290;SDS011;21411;50.024;19.220;2023-07-09T13:07:26;4.50;;;4.10;;
35290;SDS011;21411;50.024;19.220;2023-07-09T13:09:53;4.70;;;3.40;;
35290;SDS011;21411;50.024;19.220;2023-07-09T13:12:19;4.00;;;3.60;;
35290;SDS011;21411;50.024;19.220;2023-07-09T13:14:54;3.50;;;3.30;;
35290;SDS011;21411;50.024;19.220;2023-07-09T13:17:20;4.00;;;3.60;;
35290;SDS011;21411;50.024;19.220;2023-07-09T13:19:46;4.20;;;3.70;;
35290;SDS011;21411;50.024;19.220;2023-07-09T13:22:16;4.30;;;4.00;;
35290;SDS011;21411;50.024;19.220;2023-07-09T13:24:42;3.90;;;3.60;;
35290;SDS011;21411;50.024;19.220;2023-07-09T13:27:11;3.80;;;3.50;;
35290;SDS011;21411;50.024;19.220;2023-07-09T13:29:37;4.70;;;3.90;;
35290;SDS011;21411;50.024;19.220;2023-07-09T13:32:08;4.00;;;3.70;;
35290;SDS011;21411;50.024;19.220;2023-07-09T13:34:35;3.80;;;3.40;;
35290;SDS011;21411;50.024;19.220;2023-07-09T13:37:01;3.50;;;3.30;;
35290;SDS011;21411;50.024;19.220;2023-07-09T13:39:27;5.20;;;3.50;;
35290;SDS011;21411;50.024;19.220;2023-07-09T13:41:52;4.80;;;3.90;;
35290;SDS011;21411;50.024;19.220;2023-07-09T13:44:29;3.90;;;3.60;;
35290;SDS011;21411;50.024;19.220;2023-07-09T13:46:56;3.90;;;3.50;;
35290;SDS011;21411;50.024;19.220;2023-07-09T13:49:24;3.50;;;3.20;;
35290;SDS011;21411;50.024;19.220;2023-07-09T13:51:50;4.60;;;3.60;;
35290;SDS011;21411;50.024;19.220;2023-07-09T13:54:18;4.30;;;4.00;;
35290;SDS011;21411;50.024;19.220;2023-07-09T13:56:44;4.80;;;3.70;;
35290;SDS011;21411;50.024;19.220;2023-07-09T13:59:20;3.90;;;3.60;;
35290;SDS011;21411;50.024;19.220;2023-07-09T14:01:47;4.00;;;3.70;;
35290;SDS011;21411;50.024;19.220;2023-07-09T14:04:14;4.00;;;3.70;;
35290;SDS011;21411;50.024;19.220;2023-07-09T14:06:40;4.70;;;4.30;;
35290;SDS011;21411;50.024;19.220;2023-07-09T14:09:08;3.80;;;3.40;;
35290;SDS011;21411;50.024;19.220;2023-07-09T14:11:41;5.40;;;4.30;;
35290;SDS011;21411;50.024;19.220;2023-07-09T14:14:21;6.60;;;3.70;;
35290;SDS011;21411;50.024;19.220;2023-07-09T14:16:47;4.10;;;3.70;;
35290;SDS011;21411;50.024;19.220;2023-07-09T14:19:17;4.50;;;4.10;;
35290;SDS011;21411;50.024;19.220;2023-07-09T14:21:43;6.20;;;4.10;;
35290;SDS011;21411;50.024;19.220;2023-07-09T14:24:20;5.60;;;3.70;;
35290;SDS011;21411;50.024;19.220;2023-07-09T14:26:47;4.10;;;3.80;;
35290;SDS011;21411;50.024;19.220;2023-07-09T14:29:13;4.50;;;4.10;;
35290;SDS011;21411;50.024;19.220;2023-07-09T14:31:42;5.50;;;4.10;;
35290;SDS011;21411;50.024;19.220;2023-07-09T14:34:22;3.90;;;3.50;;
35290;SDS011;21411;50.024;19.220;2023-07-09T14:36:51;4.20;;;3.80;;
35290;SDS011;21411;50.024;19.220;2023-07-09T14:39:17;4.30;;;3.90;;
35290;SDS011;21411;50.024;19.220;2023-07-09T14:41:43;4.00;;;3.70;;
35290;SDS011;21411;50.024;19.220;2023-07-09T14:44:15;4.10;;;3.80;;
35290;SDS011;21411;50.024;19.220;2023-07-09T14:46:44;4.30;;;3.80;;
35290;SDS011;21411;50.024;19.220;2023-07-09T14:49:10;4.00;;;3.60;;
35290;SDS011;21411;50.024;19.220;2023-07-09T14:51:35;4.80;;;3.90;;
35290;SDS011;21411;50.024;19.220;2023-07-09T14:54:01;4.10;;;3.80;;
35290;SDS011;21411;50.024;19.220;2023-07-09T14:56:27;3.80;;;3.60;;
35290;SDS011;21411;50.024;19.220;2023-07-09T14:58:53;4.40;;;3.80;;
35290;SDS011;21411;50.024;19.220;2023-07-09T15:01:18;4.20;;;3.70;;
35290;SDS011;21411;50.024;19.220;2023-07-09T15:03:46;4.20;;;3.90;;